Portada
METAR-TAF:

METAR-TAF

Aeroports :

Shelby, Carolina del Nord, Estats Units d'Amèrica

latitud: 35-15N, longitud: 081-36W, altitud: 258 m

Observació

L'informe es va fer fa 15 minuts, a les 12:55 UTC
Vent calma
Temperatura 8°C
Humitat 100%
Pressió 1011 hPa
Visibilitat: 4.0 km
Cel ennuvolat a una alçada de 700 ft
Cel cobert a una alçada de 1300 ft
boirina

METAR: KEHO 191255Z AUTO 00000KT 2 1/2SM BR BKN007 OVC013 08/08 A2984 RMK AO2 T00760076

Hora: 08:10 (13:10 UTC)


TAF: manca

Observacions i pronòstics meteorològics de més de 4000 aeroports (METAR i TAF).

Les estacions disponibles són els punts grocs i vermells al mapa.

Posi el ratolí al punt desitjat per veure el nom de l'estació.

Feu clic per veure les observacions i els pronòstics meteorològics.

Per canviar el mapa: feu clic els botons verds amb una creu de color negre per apropar; al botó verd amb un guió per allunyar la imatge; o en les fletxes verdes per a mapes adjacents.


METAR-TAF: